sensor_id;sensor_type;location;lat;lon;timestamp;temperature;humidity
16974;DHT22;8603;46.944;7.412;2022-12-18T11:31:36;3.40;99.90
16974;DHT22;8603;46.944;7.412;2022-12-18T11:45:25;3.30;99.90
16974;DHT22;8603;46.944;7.412;2022-12-18T11:55:16;2.80;99.90
16974;DHT22;8603;46.944;7.412;2022-12-18T12:26:33;1.30;99.90
16974;DHT22;8603;46.944;7.412;2022-12-18T12:39:51;1.10;99.90
16974;DHT22;8603;46.944;7.412;2022-12-18T13:01:04;0.80;99.90
16974;DHT22;8603;46.944;7.412;2022-12-18T13:03:55;0.90;99.90
16974;DHT22;8603;46.944;7.412;2022-12-18T13:09:04;0.80;99.90
16974;DHT22;8603;46.944;7.412;2022-12-18T13:11:51;0.80;99.90
16974;DHT22;8603;46.944;7.412;2022-12-18T13:15:11;0.90;99.90
16974;DHT22;8603;46.944;7.412;2022-12-18T13:18:23;0.90;99.90
16974;DHT22;8603;46.944;7.412;2022-12-18T13:24:27;0.90;99.90
16974;DHT22;8603;46.944;7.412;2022-12-18T13:26:56;0.80;99.90
16974;DHT22;8603;46.944;7.412;2022-12-18T13:29:44;0.80;99.90
16974;DHT22;8603;46.944;7.412;2022-12-18T13:32:23;0.60;99.90
16974;DHT22;8603;46.944;7.412;2022-12-18T13:37:56;0.50;99.90
16974;DHT22;8603;46.944;7.412;2022-12-18T13:44:35;0.30;99.90
16974;DHT22;8603;46.944;7.412;2022-12-18T13:51:11;0.30;99.90
16974;DHT22;8603;46.944;7.412;2022-12-18T13:53:55;0.20;99.90
16974;DHT22;8603;46.944;7.412;2022-12-18T13:56:24;0.20;99.90
16974;DHT22;8603;46.944;7.412;2022-12-18T14:02:24;0.20;99.90
16974;DHT22;8603;46.944;7.412;2022-12-18T14:05:00;0.10;99.90
16974;DHT22;8603;46.944;7.412;2022-12-18T14:07:28;0.00;99.90
16974;DHT22;8603;46.944;7.412;2022-12-18T14:09:58;0.00;99.90
16974;DHT22;8603;46.944;7.412;2022-12-18T14:12:33;-0.10;99.90
16974;DHT22;8603;46.944;7.412;2022-12-18T14:15:36;-0.10;99.90
16974;DHT22;8603;46.944;7.412;2022-12-18T14:18:26;-0.10;99.90
16974;DHT22;8603;46.944;7.412;2022-12-18T14:24:32;-0.20;99.90
16974;DHT22;8603;46.944;7.412;2022-12-18T14:27:24;-0.30;99.90
16974;DHT22;8603;46.944;7.412;2022-12-18T14:29:50;-0.30;99.90
16974;DHT22;8603;46.944;7.412;2022-12-18T14:35:41;-0.40;99.90
16974;DHT22;8603;46.944;7.412;2022-12-18T14:38:23;-0.50;99.90
16974;DHT22;8603;46.944;7.412;2022-12-18T14:40:54;-0.50;99.90
16974;DHT22;8603;46.944;7.412;2022-12-18T14:43:20;-0.60;99.90
16974;DHT22;8603;46.944;7.412;2022-12-18T14:45:46;-0.70;99.90
16974;DHT22;8603;46.944;7.412;2022-12-18T14:48:20;-0.70;99.90
16974;DHT22;8603;46.944;7.412;2022-12-18T14:50:57;-0.70;99.90
16974;DHT22;8603;46.944;7.412;2022-12-18T14:53:34;-0.80;99.90
16974;DHT22;8603;46.944;7.412;2022-12-18T14:56:01;-0.90;99.90
16974;DHT22;8603;46.944;7.412;2022-12-18T14:58:27;-1.00;99.90
16974;DHT22;8603;46.944;7.412;2022-12-18T15:00:53;-1.20;99.90
16974;DHT22;8603;46.944;7.412;2022-12-18T15:03:20;-1.20;99.90
16974;DHT22;8603;46.944;7.412;2022-12-18T15:05:47;-1.20;99.90
16974;DHT22;8603;46.944;7.412;2022-12-18T15:08:36;-1.30;99.90
16974;DHT22;8603;46.944;7.412;2022-12-18T15:11:22;-1.40;99.90
16974;DHT22;8603;46.944;7.412;2022-12-18T15:13:52;-1.50;99.90
16974;DHT22;8603;46.944;7.412;2022-12-18T15:16:18;-1.60;99.90
16974;DHT22;8603;46.944;7.412;2022-12-18T15:18:44;-1.60;99.90
16974;DHT22;8603;46.944;7.412;2022-12-18T15:21:15;-1.70;99.90
16974;DHT22;8603;46.944;7.412;2022-12-18T15:23:50;-1.70;99.90
16974;DHT22;8603;46.944;7.412;2022-12-18T15:26:21;-1.70;99.90
16974;DHT22;8603;46.944;7.412;2022-12-18T15:28:49;-1.80;99.90
16974;DHT22;8603;46.944;7.412;2022-12-18T15:36:34;-1.80;99.90
16974;DHT22;8603;46.944;7.412;2022-12-18T15:39:06;-1.80;99.90
16974;DHT22;8603;46.944;7.412;2022-12-18T15:41:34;-1.80;99.90
16974;DHT22;8603;46.944;7.412;2022-12-18T15:44:00;-1.90;99.90
16974;DHT22;8603;46.944;7.412;2022-12-18T15:46:26;-1.90;99.90
16974;DHT22;8603;46.944;7.412;2022-12-18T15:48:56;-2.00;99.90
16974;DHT22;8603;46.944;7.412;2022-12-18T15:53:52;-2.20;99.90
16974;DHT22;8603;46.944;7.412;2022-12-18T15:56:19;-2.30;99.90
16974;DHT22;8603;46.944;7.412;2022-12-18T15:59:08;-2.30;99.90
16974;DHT22;8603;46.944;7.412;2022-12-18T16:01:35;-2.40;99.90
16974;DHT22;8603;46.944;7.412;2022-12-18T16:04:01;-2.30;99.90
16974;DHT22;8603;46.944;7.412;2022-12-18T16:06:26;-2.30;99.90
16974;DHT22;8603;46.944;7.412;2022-12-18T16:08:52;-2.30;99.90
16974;DHT22;8603;46.944;7.412;2022-12-18T16:11:37;-2.30;99.90
16974;DHT22;8603;46.944;7.412;2022-12-18T16:16:56;-2.40;99.90
16974;DHT22;8603;46.944;7.412;2022-12-18T16:19:22;-2.30;99.90
16974;DHT22;8603;46.944;7.412;2022-12-18T16:21:52;-2.30;99.90
16974;DHT22;8603;46.944;7.412;2022-12-18T16:24:31;-2.30;99.90
16974;DHT22;8603;46.944;7.412;2022-12-18T16:27:20;-2.20;99.90
16974;DHT22;8603;46.944;7.412;2022-12-18T16:29:56;-2.10;99.90
16974;DHT22;8603;46.944;7.412;2022-12-18T16:35:18;-1.90;99.90
16974;DHT22;8603;46.944;7.412;2022-12-18T16:37:44;-1.80;99.90
16974;DHT22;8603;46.944;7.412;2022-12-18T16:40:12;-1.70;99.90
16974;DHT22;8603;46.944;7.412;2022-12-18T16:42:40;-1.60;99.90
16974;DHT22;8603;46.944;7.412;2022-12-18T16:45:08;-1.60;99.90
16974;DHT22;8603;46.944;7.412;2022-12-18T16:47:34;-1.50;99.90
16974;DHT22;8603;46.944;7.412;2022-12-18T16:50:04;-1.40;99.90
16974;DHT22;8603;46.944;7.412;2022-12-18T16:52:33;-1.40;99.90
16974;DHT22;8603;46.944;7.412;2022-12-18T16:55:17;-1.40;99.90
16974;DHT22;8603;46.944;7.412;2022-12-18T16:57:50;-1.30;99.90
16974;DHT22;8603;46.944;7.412;2022-12-18T17:00:16;-1.50;99.90
16974;DHT22;8603;46.944;7.412;2022-12-18T17:02:54;-1.40;99.90
16974;DHT22;8603;46.944;7.412;2022-12-18T17:05:25;-1.30;99.90
16974;DHT22;8603;46.944;7.412;2022-12-18T17:07:54;-1.40;99.90
16974;DHT22;8603;46.944;7.412;2022-12-18T17:10:34;-1.30;99.90
16974;DHT22;8603;46.944;7.412;2022-12-18T17:13:37;-1.30;99.90
16974;DHT22;8603;46.944;7.412;2022-12-18T17:16:20;-1.30;99.90
16974;DHT22;8603;46.944;7.412;2022-12-18T17:18:57;-1.20;99.90
16974;DHT22;8603;46.944;7.412;2022-12-18T17:21:28;-1.20;99.90
16974;DHT22;8603;46.944;7.412;2022-12-18T17:30:27;-1.20;99.90
16974;DHT22;8603;46.944;7.412;2022-12-18T17:36:09;-1.20;99.90
16974;DHT22;8603;46.944;7.412;2022-12-18T17:39:35;-1.10;99.90
16974;DHT22;8603;46.944;7.412;2022-12-18T17:42:27;-1.10;99.90
16974;DHT22;8603;46.944;7.412;2022-12-18T17:48:25;-1.10;99.90
16974;DHT22;8603;46.944;7.412;2022-12-18T17:51:15;-1.10;99.90
16974;DHT22;8603;46.944;7.412;2022-12-18T17:53:50;-1.00;99.90
16974;DHT22;8603;46.944;7.412;2022-12-18T17:56:21;-1.00;99.90
16974;DHT22;8603;46.944;7.412;2022-12-18T17:58:50;-1.00;99.90
16974;DHT22;8603;46.944;7.412;2022-12-18T18:01:19;-1.00;99.90
16974;DHT22;8603;46.944;7.412;2022-12-18T18:03:46;-1.00;99.90
16974;DHT22;8603;46.944;7.412;2022-12-18T18:06:16;-1.00;99.90
16974;DHT22;8603;46.944;7.412;2022-12-18T18:08:50;-1.00;99.90
16974;DHT22;8603;46.944;7.412;2022-12-18T18:11:18;-0.90;99.90
16974;DHT22;8603;46.944;7.412;2022-12-18T18:14:10;-1.00;99.90
16974;DHT22;8603;46.944;7.412;2022-12-18T18:16:39;-1.00;99.90
16974;DHT22;8603;46.944;7.412;2022-12-18T18:19:18;-1.10;99.90
16974;DHT22;8603;46.944;7.412;2022-12-18T18:21:55;-1.10;99.90
16974;DHT22;8603;46.944;7.412;2022-12-18T18:24:23;-1.20;99.90
16974;DHT22;8603;46.944;7.412;2022-12-18T18:27:19;-1.30;99.90
16974;DHT22;8603;46.944;7.412;2022-12-18T18:29:53;-1.30;99.90
16974;DHT22;8603;46.944;7.412;2022-12-18T18:32:21;-1.40;99.90
16974;DHT22;8603;46.944;7.412;2022-12-18T18:35:07;-1.50;99.90
16974;DHT22;8603;46.944;7.412;2022-12-18T18:37:38;-1.60;99.90
16974;DHT22;8603;46.944;7.412;2022-12-18T18:40:05;-1.70;99.90
16974;DHT22;8603;46.944;7.412;2022-12-18T18:42:30;-1.70;99.90
16974;DHT22;8603;46.944;7.412;2022-12-18T18:44:58;-1.80;99.90
16974;DHT22;8603;46.944;7.412;2022-12-18T18:47:47;-1.90;99.90
16974;DHT22;8603;46.944;7.412;2022-12-18T18:51:12;-2.00;99.90
16974;DHT22;8603;46.944;7.412;2022-12-18T18:54:01;-2.00;99.90
16974;DHT22;8603;46.944;7.412;2022-12-18T18:56:26;-2.00;99.90
16974;DHT22;8603;46.944;7.412;2022-12-18T18:58:55;-2.10;99.90
16974;DHT22;8603;46.944;7.412;2022-12-18T19:01:21;-2.00;99.90
16974;DHT22;8603;46.944;7.412;2022-12-18T19:04:08;-1.90;99.90
16974;DHT22;8603;46.944;7.412;2022-12-18T19:06:54;-1.80;99.90
16974;DHT22;8603;46.944;7.412;2022-12-18T19:09:57;-1.70;99.90
16974;DHT22;8603;46.944;7.412;2022-12-18T19:16:21;-1.60;99.90
16974;DHT22;8603;46.944;7.412;2022-12-18T19:19:00;-1.40;99.90
16974;DHT22;8603;46.944;7.412;2022-12-18T22:26:17;-0.20;99.90
16974;DHT22;8603;46.944;7.412;2022-12-18T22:29:13;-0.10;99.90
16974;DHT22;8603;46.944;7.412;2022-12-18T22:32:14;-0.10;99.90
16974;DHT22;8603;46.944;7.412;2022-12-18T23:37:28;0.20;99.90
16974;DHT22;8603;46.944;7.412;2022-12-18T23:40:49;0.20;99.90
16974;DHT22;8603;46.944;7.412;2022-12-18T23:43:47;0.20;99.90
16974;DHT22;8603;46.944;7.412;2022-12-18T23:46:53;0.30;99.90
